Smithville, New Jersey
Current Conditions -  °F | °C
As of 1:54 AM on Wednesday 22 Oct 2014 (Local Time) from KACY Reporting Station
Overcast Overcast  
Wind Chill: 55°   Ceiling: 9000
Heat Index: 55°   Visibility: 10mi
Dew Point: 54°   Wind: 9mph
Humidity: 96%   Direction: 20°NNE
Pressure: 29.82"   Gusts: NA
Location:  39.4315°N, 74.5003°W
Report Text: KACY 220554Z 02008KT 10SM OVC090 13/12 A2982 RMK AO2 RAB14E51 SLP096 P0000 60000 T01280122 10133 20094 58014
Loading
Personal Weather Stations






























Interactive Weather Map
Tropical Storm Tracking
New forecast layout! Learn more

10-Day Weather Forecast

Advertisements
Track Severe Weather on mobile